• Join FlightAware (Why Join?)
  • Login
  • US Flag 
09:08AM EDT


 

Airport Tracker/Info


-or-


 

Live Flight TrackerFlight Track Log ✈ UAL1208 ✈ 27-Apr-2013 ✈ KSFO - KIAD

Flight Track Log - Related Links

Times and Time Zones

All times are in EDT time to prevent confusion due to time zone crossing. See the UAL1208 flight status page for this flight to view local times or setup timezone preferences in your user account.

Time Position Orientation Groundspeed Altitude Reporting Facility
EDT Latitude Longitude Course Direction KTS MPH feet Rate Location/Type
02:13AM 37.6500 -122.3500 44° Northeast 191 220 1,900  Level Northern Cal TRACON
02:14AM 37.7167 -122.3167 22° Northeast 245 282 3,400 1,920 Climbing Northern Cal TRACON
02:15AM 37.7833 -122.3667 329° Northwest 266 306 5,600 2,280 Climbing Northern Cal TRACON
02:16AM 37.8500 -122.3667 360° North 286 329 8,000 1,920 Climbing Northern Cal TRACON
02:17AM 38.1091 -122.0738 53° Northeast  Level FlightAware Approximate
02:17AM 37.8933 -122.3022 50° Northeast 288 331 9,600  Level Oakland Center
02:18AM 38.1944 -121.9570 44° Northeast  Level FlightAware Approximate
02:18AM 37.9656 -122.2056 47° Northeast 323 372 11,200  Level Oakland Center
02:19AM 38.0353 -122.1089 48° Northeast 370 426 12,400 1,620 Climbing Oakland Center
02:20AM 38.1108 -122.0078 46° Northeast 393 452 14,500 1,980 Climbing Oakland Center
02:21AM 38.1872 -121.9031 47° Northeast 404 465 16,400 1,800 Climbing Oakland Center
02:22AM 38.2661 -121.7956 47° Northeast 413 475 18,100 1,680 Climbing Oakland Center
02:23AM 38.3464 -121.6844 47° Northeast 425 489 19,800 1,680 Climbing Oakland Center
02:24AM 38.4278 -121.5711 47° Northeast 433 498 21,500 1,500 Climbing Oakland Center
02:25AM 38.5044 -121.4481 51° Northeast 440 506 22,900 1,320 Climbing Oakland Center
02:26AM 38.5806 -121.3161 54° Northeast 463 533 24,200 1,260 Climbing Oakland Center
02:27AM 38.6575 -121.1856 53° Northeast 463 533 25,500 1,140 Climbing Oakland Center
02:28AM 38.7342 -121.0519 54° Northeast 470 541 26,600 1,320 Climbing Oakland Center
02:29AM 38.8131 -120.9147 54° Northeast 474 545 28,200 1,500 Climbing Oakland Center
02:30AM 38.8903 -120.7797 54° Northeast 472 543 29,700 1,380 Climbing Oakland Center
02:31AM 38.9692 -120.6461 53° Northeast 470 541 31,000 1,260 Climbing Oakland Center
02:32AM 39.0453 -120.5108 54° Northeast 468 539 32,300 960 Climbing Oakland Center
02:33AM 39.1222 -120.3783 53° Northeast 465 535 33,000 300 Climbing Oakland Center
02:34AM 39.1994 -120.2406 54° Northeast 471 542 33,000  Level Oakland Center
02:35AM 39.2731 -120.1133 53° Northeast 481 554 33,000  Level Oakland Center
02:36AM 39.3539 -119.9719 53° Northeast 487 560 33,000  Level Oakland Center
02:37AM 39.4331 -119.8317 54° Northeast 483 556 33,000  Level Oakland Center
02:38AM 39.5122 -119.6903 54° Northeast 484 557 33,000  Level Oakland Center
02:39AM 39.5914 -119.5492 54° Northeast 483 556 33,000  Level Oakland Center
02:40AM 39.6692 -119.4075 54° Northeast 480 552 33,000  Level Oakland Center
02:41AM 39.7481 -119.2656 54° Northeast 482 555 33,000  Level Oakland Center
02:42AM 39.8267 -119.1228 54° Northeast 482 555 33,000  Level Oakland Center
02:43AM 39.9053 -118.9800 54° Northeast 482 555 33,000  Level Oakland Center
02:44AM 39.9839 -118.8364 54° Northeast 483 556 33,000  Level Oakland Center
02:45AM 40.0619 -118.6939 54° Northeast 481 554 33,000  Level Oakland Center
02:46AM 40.1336 -118.5436 58° Northeast 485 558 33,000  Level Oakland Center
02:47AM 40.1800 -118.3781 70° East 483 556 33,000  Level Oakland Center
02:48AM 40.2233 -118.2186 70° East 486 559 33,000  Level Salt Lake Center
02:49AM 40.2661 -118.0592 71° East 485 558 33,000  Level Salt Lake Center
02:50AM 40.2983 -117.8950 76° East 488 562 33,000  Level Salt Lake Center
02:51AM 40.3250 -117.6992 80° East 489 563 33,000  Level Salt Lake Center
02:52AM 40.3522 -117.5339 78° East 486 559 33,000  Level Salt Lake Center
02:53AM 40.3792 -117.3667 78° East 488 562 33,000  Level Salt Lake Center
02:54AM 40.4097 -117.1722 78° East 487 560 33,000  Level Salt Lake Center
02:55AM 40.4361 -117.0044 78° East 487 560 33,000  Level Salt Lake Center
02:56AM 40.4617 -116.8242 79° East 492 566 33,000  Level Salt Lake Center
02:57AM 40.4856 -116.6581 79° East 487 560 33,000  Level Salt Lake Center
02:58AM 40.5094 -116.4889 79° East 490 564 33,000  Level Salt Lake Center
02:59AM 40.5364 -116.2928 80° East 489 563 33,000  Level Salt Lake Center
03:00AM 40.5606 -116.1239 79° East 491 565 33,000  Level Salt Lake Center
03:01AM 40.5839 -115.9556 80° East 490 564 33,000  Level Salt Lake Center
03:02AM 40.6061 -115.7875 80° East 488 562 33,000  Level Salt Lake Center
03:03AM 40.6294 -115.5883 81° East 492 566 33,000  Level Salt Lake Center
03:04AM 40.6514 -115.4197 80° East 490 564 33,000  Level Salt Lake Center
03:05AM 40.6742 -115.2503 80° East 492 566 33,000  Level Salt Lake Center
03:06AM 40.6967 -115.0808 80° East 492 566 33,000  Level Salt Lake Center
03:07AM 40.7236 -114.8817 80° East 493 567 33,000  Level Salt Lake Center
03:08AM 40.7433 -114.7214 81° East 491 565 33,000  Level Salt Lake Center
03:09AM 40.7653 -114.5428 81° East 493 567 33,000  Level Salt Lake Center
03:10AM 40.7864 -114.3644 81° East 494 568 33,000  Level Salt Lake Center
03:11AM 40.8086 -114.1867 81° East 493 567 33,000  Level Salt Lake Center
03:12AM 40.8292 -114.0069 81° East 496 571 33,000  Level Salt Lake Center
03:13AM 40.8497 -113.8286 81° East 494 568 33,000  Level Salt Lake Center
03:14AM 40.8706 -113.6514 81° East 492 566 33,000  Level Salt Lake Center
03:15AM 40.8906 -113.4731 82° East 491 565 33,000  Level Salt Lake Center
03:16AM 40.9111 -113.2942 81° East 494 568 33,000  Level Salt Lake Center
03:17AM 40.9333 -113.0772 82° East 497 572 33,000  Level Salt Lake Center
03:18AM 40.9528 -112.8972 82° East 497 572 33,000  Level Salt Lake Center
03:19AM 40.9719 -112.7169 82° East 498 573 33,000  Level Salt Lake Center
03:20AM 40.9911 -112.5361 82° East 498 573 33,000  Level Salt Lake Center
03:21AM 41.0097 -112.3542 82° East 498 573 33,000  Level Salt Lake Center
03:22AM 41.0283 -112.1728 82° East 500 575 33,000  Level Salt Lake Center
03:23AM 41.0464 -111.9922 82° East 495 570 33,000  Level Salt Lake Center
03:24AM 41.0653 -111.8072 82° East 500 575 33,000  Level Salt Lake Center
03:25AM 41.0806 -111.6500 83° East 498 573 33,000  Level Salt Lake Center
03:26AM 41.0978 -111.4683 83° East 497 572 33,000  Level Salt Lake Center
03:27AM 41.1147 -111.2872 83° East 496 571 33,000  Level Salt Lake Center
03:28AM 41.1297 -111.1075 84° East 492 566 33,000  Level Salt Lake Center
03:29AM 41.1472 -110.9211 83° East 496 571 33,000  Level Salt Lake Center
03:30AM 41.1656 -110.7175 83° East 499 574 33,000  Level Salt Lake Center
03:31AM 41.1803 -110.5436 84° East 496 571 33,000  Level Salt Lake Center
03:32AM 41.1947 -110.3706 84° East 494 568 33,000  Level Salt Lake Center
03:33AM 41.2122 -110.1681 83° East 493 567 33,000  Level Salt Lake Center
03:34AM 41.2261 -109.9944 84° East 494 568 33,000  Level Salt Lake Center
03:35AM 41.2397 -109.8217 84° East 494 568 33,000  Level Salt Lake Center
03:36AM 41.2531 -109.6508 84° East 490 564 33,000  Level Salt Lake Center
03:37AM 41.2686 -109.4514 84° East 488 562 33,000  Level Salt Lake Center
03:38AM 41.2811 -109.2814 84° East 489 563 33,000  Level Salt Lake Center
03:39AM 41.2964 -109.0836 84° East 491 565 33,000  Level Salt Lake Center
03:40AM 41.3092 -108.9142 84° East 490 564 33,000  Level Salt Lake Center
03:41AM 41.3214 -108.7433 85° East 490 564 33,000  Level Salt Lake Center
03:42AM 41.3353 -108.5436 85° East 489 563 33,000  Level Salt Lake Center
03:43AM 41.3472 -108.3694 85° East 493 567 33,000  Level Salt Lake Center
03:44AM 41.3589 -108.1958 85° East 493 567 33,000  Level Salt Lake Center
03:45AM 41.3708 -107.9922 85° East 491 565 33,000  Level Denver Center
03:46AM 41.3817 -107.8200 85° East 489 563 33,000  Level Denver Center
03:47AM 41.3942 -107.6186 85° East 490 564 33,000  Level Denver Center
03:48AM 41.4047 -107.4461 85° East 490 564 33,000  Level Denver Center
03:49AM 41.4156 -107.2714 85° East 495 570 33,000  Level Denver Center
03:50AM 41.4258 -107.0669 86° East 495 570 33,000  Level Denver Center
03:51AM 41.4369 -106.8942 85° East 493 567 33,000  Level Denver Center
03:52AM 41.4447 -106.7194 87° East 494 568 33,000  Level Denver Center
03:53AM 41.4567 -106.5172 85° East 492 566 33,000  Level Denver Center
03:54AM 41.4644 -106.3406 87° East 490 564 33,000  Level Denver Center
03:55AM 41.4728 -106.1675 86° East 490 564 33,000  Level Denver Center
03:56AM 41.4803 -105.9922 87° East 494 568 33,000  Level Denver Center
03:57AM 41.4892 -105.7914 87° East 489 563 33,000  Level Denver Center
03:58AM 41.4975 -105.6178 86° East 490 564 33,000  Level Denver Center
03:59AM 41.5036 -105.4744 87° East 489 563 33,000  Level Denver Center
04:00AM 41.5114 -105.2719 87° East 491 565 33,000  Level Denver Center
04:01AM 41.5183 -105.0967 87° East 492 566 33,000  Level Denver Center
04:02AM 41.5258 -104.8919 87° East 494 568 33,000  Level Denver Center
04:03AM 41.5317 -104.7203 87° East 490 564 33,000  Level Denver Center
04:04AM 41.5389 -104.5192 87° East 487 560 33,000  Level Denver Center
04:05AM 41.5439 -104.3447 88° East 492 566 33,000  Level Denver Center
04:06AM 41.5494 -104.1719 87° East 489 563 33,000  Level Denver Center
04:07AM 41.5556 -103.9697 88° East 490 564 33,000  Level Denver Center
04:08AM 41.5594 -103.7989 88° East 485 558 33,000  Level Denver Center
04:09AM 41.5647 -103.6242 88° East 489 563 33,000  Level Denver Center
04:10AM 41.5692 -103.4231 88° East 488 562 33,000  Level Denver Center
04:11AM 41.5733 -103.2492 88° East 491 565 33,000  Level Denver Center
04:12AM 41.5767 -103.0761 88° East 489 563 33,000  Level Denver Center
04:13AM 41.5808 -102.9022 88° East 490 564 33,000  Level Denver Center
04:14AM 41.5842 -102.7003 89° East 489 563 33,000  Level Denver Center
04:15AM 41.5864 -102.5375 89° East 489 563 33,000  Level Denver Center
04:16AM 41.5892 -102.3336 89° East 492 566 33,000  Level Denver Center
04:17AM 41.5925 -102.1603 88° East 490 564 33,000  Level Denver Center
04:18AM 41.5944 -101.9842 89° East 493 567 33,000  Level Denver Center
04:19AM 41.5969 -101.7811 89° East 490 564 33,000  Level Denver Center
04:20AM 41.5981 -101.6061 89° East 491 565 33,000  Level Denver Center
04:21AM 41.6003 -101.4317 89° East 491 565 33,000  Level Denver Center
04:22AM 41.5994 -101.2597 90° East 485 558 33,000  Level Denver Center
04:23AM 41.6017 -101.0567 89° East 488 562 33,000  Level Denver Center
04:24AM 41.6008 -100.8836 90° East 486 559 33,000  Level Denver Center
04:25AM 41.6006 -100.7108 90° East 485 558 33,000 240 Level Denver Center
04:26AM 41.6014 -100.5386 90° East 483 556 33,600 960 Climbing Denver Center
04:27AM 41.6008 -100.3383 90° East 481 554 35,000 660 Climbing Denver Center
04:28AM 41.6000 -100.1692 90° East 477 549 35,000  Level Denver Center
04:29AM 41.5992 -100.0014 90° East 472 543 35,000  Level Denver Center
04:31AM 41.5981 -99.8331 90° East 472 543 35,000  Level Denver Center
04:32AM 41.5961 -99.6189 91° East 477 549 35,000  Level Denver Center
04:33AM 41.5939 -99.4419 91° East 476 548 35,000  Level Denver Center
04:34AM 41.5922 -99.2625 91° East 479 551 35,000  Level Denver Center
04:34AM 41.5911 -99.1192 91° East 479 551 35,000  Level Minneapolis Center
04:35AM 41.5878 -98.9386 91° East 481 554 35,000  Level Minneapolis Center
04:36AM 41.5850 -98.7589 91° East 481 554 35,000  Level Minneapolis Center
04:37AM 41.5825 -98.5803 91° East 478 550 35,000  Level Minneapolis Center
04:38AM 41.5781 -98.4011 92° East 478 550 35,000  Level Minneapolis Center
04:39AM 41.5747 -98.2231 91° East 478 550 35,000  Level Minneapolis Center
04:40AM 41.5714 -98.0733 92° East 479 551 35,000  Level Minneapolis Center
04:41AM 41.5672 -97.8950 92° East 481 554 35,000  Level Minneapolis Center
04:42AM 41.5622 -97.7167 92° East 482 555 35,000  Level Minneapolis Center
04:43AM 41.5575 -97.5386 92° East 481 554 35,000  Level Minneapolis Center
04:44AM 41.5525 -97.3608 92° East 480 552 35,000  Level Minneapolis Center
04:45AM 41.5475 -97.1844 92° East 478 550 35,000  Level Minneapolis Center
04:46AM 41.5419 -97.0436 93° East 475 547 35,000  Level Minneapolis Center
04:47AM 41.5350 -96.7967 92° East 476 548 35,000  Level Minneapolis Center
04:48AM 41.5294 -96.6217 92° East 473 544 35,000  Level Minneapolis Center
04:49AM 41.5222 -96.4447 93° East 476 548 35,000  Level Minneapolis Center
04:50AM 41.5144 -96.2711 93° East 479 551 35,000  Level Minneapolis Center
04:51AM 41.5078 -96.0931 93° East 480 552 35,000  Level Minneapolis Center
04:52AM 41.4997 -95.9161 93° East 480 552 35,000  Level Minneapolis Center
04:53AM 41.4922 -95.7386 93° East 480 552 35,000  Level Minneapolis Center
04:54AM 41.4856 -95.5808 93° East 480 552 35,000  Level Minneapolis Center
04:55AM 41.4775 -95.4033 93° East 479 551 35,000  Level Minneapolis Center
04:56AM 41.4703 -95.2258 93° East 479 551 35,000  Level Minneapolis Center
04:57AM 41.4617 -95.0508 94° East 475 547 35,000  Level Minneapolis Center
04:58AM 41.4519 -94.8736 94° East 476 548 35,000  Level Minneapolis Center
04:59AM 41.4436 -94.6958 94° East 480 552 35,000  Level Minneapolis Center
05:00AM 41.4344 -94.5181 94° East 480 552 35,000  Level Minneapolis Center
05:01AM 41.4236 -94.3403 95° East 480 552 35,000  Level Minneapolis Center
05:02AM 41.4131 -94.1639 95° East 482 555 35,000  Level Minneapolis Center
05:03AM 41.4006 -93.9864 95° East 484 557 35,000  Level Minneapolis Center
05:04AM 41.3903 -93.8092 94° East 483 556 35,000  Level Minneapolis Center
05:05AM 41.3806 -93.6319 94° East 483 556 35,000  Level Minneapolis Center
05:06AM 41.3692 -93.4558 95° East 482 555 35,000  Level Minneapolis Center
05:07AM 41.3583 -93.2797 95° East 481 554 35,000  Level Minneapolis Center
05:08AM 41.3472 -93.1006 95° East 483 556 35,000  Level Minneapolis Center
05:09AM 41.3361 -92.9228 95° East 484 557 35,000  Level Minneapolis Center
05:10AM 41.3236 -92.7447 95° East 485 558 35,000  Level Minneapolis Center
05:11AM 41.3108 -92.5664 95° East 483 556 35,000  Level Chicago Center
05:12AM 41.2986 -92.3908 95° East 481 554 35,000  Level Chicago Center
05:13AM 41.2869 -92.2253 95° East 477 549 35,000  Level Chicago Center
05:14AM 41.2731 -92.0508 96° East 479 551 35,000  Level Chicago Center
05:15AM 41.2600 -91.8753 96° East 482 555 35,000  Level Chicago Center
05:16AM 41.2461 -91.7011 96° East 482 555 35,000  Level Chicago Center
05:17AM 41.2331 -91.5406 96° East 478 550 35,000  Level Chicago Center
05:18AM 41.2194 -91.3678 96° East 472 543 35,000  Level Chicago Center
05:19AM 41.2047 -91.1947 96° East 473 544 35,000  Level Chicago Center
05:20AM 41.1906 -91.0231 96° East 467 537 35,000  Level Chicago Center
05:21AM 41.1753 -90.8503 97° East 471 542 35,000  Level Chicago Center
05:22AM 41.1614 -90.6778 96° East 471 542 35,000  Level Chicago Center
05:23AM 41.1458 -90.5067 97° East 468 539 35,000  Level Chicago Center
05:24AM 41.1294 -90.3333 97° East 470 541 35,000  Level Chicago Center
05:25AM 41.1144 -90.1611 97° East 468 539 35,000  Level Chicago Center
05:26AM 41.0978 -89.9875 97° East 471 542 35,000  Level Chicago Center
05:27AM 41.0817 -89.8131 97° East 472 543 35,000  Level Chicago Center
05:28AM 41.0653 -89.6381 97° East 474 545 35,000  Level Chicago Center
05:29AM 41.0483 -89.4628 97° East 477 549 35,000  Level Chicago Center
05:30AM 41.0300 -89.2917 98° East 469 540 35,000  Level Chicago Center
05:31AM 41.0133 -89.1231 97° East 474 545 35,000  Level Chicago Center
05:32AM 40.9942 -88.9431 98° East 476 548 35,000  Level Chicago Center
05:33AM 40.9736 -88.7456 98° East 474 545 35,000  Level Chicago Center
05:34AM 40.9553 -88.5750 98° East 472 543 35,000  Level Chicago Center
05:35AM 40.9375 -88.4053 98° East 472 543 35,000  Level Chicago Center
05:36AM 40.9197 -88.2350 98° East 474 545 35,000  Level Chicago Center
05:37AM 40.8994 -88.0650 99° East 473 544 35,000  Level Chicago Center
05:38AM 40.8817 -87.8942 98° East 475 547 35,000  Level Chicago Center
05:39AM 40.8622 -87.7256 99° East 473 544 35,000  Level Chicago Center
05:40AM 40.8428 -87.5550 99° East 475 547 35,000  Level Chicago Center
05:41AM 40.8228 -87.3847 99° East 475 547 35,000  Level Chicago Center
05:42AM 40.8011 -87.2153 100° East 472 543 35,000  Level Chicago Center
05:43AM 40.7814 -87.0414 98° East 478 550 35,000  Level Chicago Center
05:44AM 40.7600 -86.8694 99° East 481 554 35,000  Level Chicago Center
05:45AM 40.7389 -86.6950 99° East 484 557 35,000  Level Chicago Center
05:46AM 40.7164 -86.5197 100° East 487 560 35,000  Level Chicago Center
05:47AM 40.6942 -86.3467 100° East 485 558 35,000  Level Chicago Center
05:48AM 40.6725 -86.1661 99° East 478 550 35,000  Level Chicago Center
05:49AM 40.6492 -85.9894 100° East 482 555 35,000  Level Chicago Center
05:50AM 40.6264 -85.8128 100° East 484 557 35,000  Level Chicago Center
05:51AM 40.6039 -85.6375 100° East 483 556 35,000  Level Chicago Center
05:52AM 40.5794 -85.4614 100° East 485 558 35,000  Level Chicago Center
05:53AM 40.5572 -85.2847 99° East 487 560 35,000  Level Chicago Center
05:54AM 40.5319 -85.1089 101° East 486 559 35,000  Level Chicago Center
05:55AM 40.5036 -84.9336 102° East 484 557 35,000  Level Chicago Center
05:56AM 40.4747 -84.7572 102° East 488 562 35,000  Level Chicago Center
05:57AM 40.4422 -84.5783 103° East 499 574 35,000  Level Chicago Center
05:58AM 40.4147 -84.4058 102° East 490 564 35,000  Level Chicago Center
05:59AM 40.3847 -84.2339 103° East 486 559 35,000  Level Chicago Center
06:00AM 40.3561 -84.0606 102° East 488 562 35,000  Level Chicago Center
06:01AM 40.3258 -83.8858 103° East 492 566 35,000  Level Chicago Center
06:02AM 40.2942 -83.7092 103° East 497 572 35,000  Level Chicago Center
06:03AM 40.2644 -83.5322 102° East 499 574 35,000  Level Chicago Center
06:05AM 40.2325 -83.3500 103° East 498 573 35,000  Level Indianapolis Center
06:06AM 40.2014 -83.1714 103° East 498 573 35,000  Level Indianapolis Center
06:07AM 40.1697 -82.9919 103° East 497 572 35,000  Level Indianapolis Center
06:08AM 40.1364 -82.8131 104° East 501 577 35,000  Level Indianapolis Center
06:09AM 40.1039 -82.6336 103° East 501 577 35,000  Level Indianapolis Center
06:10AM 40.0714 -82.4547 103° East 503 579 35,000  Level Indianapolis Center
06:11AM 40.0364 -82.2736 104° East 509 586 35,000  Level Indianapolis Center
06:12AM 40.0031 -82.0922 103° East 510 587 35,000  Level Indianapolis Center
06:13AM 39.9692 -81.9117 104° East 510 587 35,000  Level Indianapolis Center
06:14AM 39.9336 -81.7294 104° East 514 592 35,000  Level Indianapolis Center
06:15AM 39.8983 -81.5483 104° East 513 590 35,000  Level Indianapolis Center
06:16AM 39.8667 -81.3847 104° East 513 590 35,000  Level Indianapolis Center
06:17AM 39.8322 -81.2031 104° East 515 593 35,000  Level Indianapolis Center
06:17AM 39.8017 -81.0317 103° East 509 586 35,000  Level Cleveland Center
06:18AM 39.7625 -80.8506 106° East 509 586 35,000  Level Cleveland Center
06:19AM 39.7272 -80.6694 104° East 509 586 35,000  Level Cleveland Center
06:20AM 39.6897 -80.4886 105° East 509 586 35,000  Level Cleveland Center
06:21AM 39.6500 -80.3053 106° East 514 592 35,000 -360 Level Cleveland Center
06:22AM 39.6161 -80.1222 103° East 514 592 34,300 -1,560 Descending Cleveland Center
06:24AM 39.5750 -79.9372 106° East 511 588 31,800 -2,160 Descending Washington Center
06:25AM 39.5397 -79.7547 104° East 500 575 29,900 -2,040 Descending Washington Center
06:25AM 39.5100 -79.5833 103° East 495 570 27,800 -1,860 Descending Washington Center
06:27AM 39.4822 -79.4178 102° East 482 555 26,200 -1,620 Descending Washington Center
06:27AM 39.4536 -79.2603 103° East 464 534 24,600 -1,860 Descending Washington Center
06:29AM 39.4244 -79.1219 105° East 451 519 22,500 -2,220 Descending Washington Center
06:30AM 39.3994 -78.9783 103° East 425 489 20,100 -2,520 Descending Washington Center
06:30AM 39.3739 -78.8456 104° East 406 467 17,700 -2,160 Descending Washington Center
06:31AM 39.3522 -78.7158 102° East 382 440 15,900 -1,740 Descending Washington Center
06:33AM 39.3306 -78.5914 103° East 362 417 14,300 -1,500 Descending Washington Center
06:33AM 39.3064 -78.4697 104° East 357 411 13,000 -1,380 Descending Washington Center
06:35AM 39.2797 -78.3586 107° East 344 396 11,500 -960 Descending Washington Center
06:36AM 39.2339 -78.2686 123° Southeast 314 361 11,100 -900 Descending Washington Center
06:36AM 39.1919 -78.1867 123° Southeast 294 338 9,800 -1,260 Descending Washington Center
06:38AM 39.1497 -78.1075 125° Southeast 276 318 8,600 -1,200 Descending Washington Center
06:39AM 39.1097 -78.0314 124° Southeast 265 305 7,400 -900 Descending Washington Center
06:40AM 39.0714 -77.9578 124° Southeast 265 305 6,900 -360 Descending Washington Center
06:41AM 39.0272 -77.8789 126° Southeast 260 299 6,700 -240 Descending Washington Center
06:41AM 38.9950 -77.8136 122° Southeast 244 281 6,500 -240 Descending Washington Center
06:42AM 38.9631 -77.7300 116° Southeast 239 275 6,300 -600 Descending Washington Center
06:44AM 39.0000 -77.5833 72° East 274 315 4,900 -900 Descending Potomac TRACON
06:45AM 39.0500 -77.5333 38° Northeast 234 269 3,900 -1,140 Descending Potomac TRACON